Time;durP1;ratioP1;P1;durP2;ratioP2;P2;SDS_P1;SDS_P2;PMS_P1;PMS_P2;Temp;Humidity;BMP_temperature;BMP_pressure;BME280_temperature;BME280_humidity;BME280_pressure;Samples;Min_cycle;Max_cycle;Signal;HPM_P1;HPM_P2
2023/06/07 00:00:05;;;;;;;5.00;0.80;;;;;;;;;;2089881;28;20029;-59
2023/06/07 00:01:25;;;;;;;0.80;0.50;;;;;;;;;;2091242;28;20025;-60
2023/06/07 00:02:44;;;;;;;0.63;0.57;;;;;;;;;;2089470;28;20071;-59
2023/06/07 00:04:03;;;;;;;0.80;0.73;;;;;;;;;;2091253;28;20029;-60
2023/06/07 00:05:22;;;;;;;0.82;0.73;;;;;;;;;;2093976;28;20028;-60
2023/06/07 00:06:42;;;;;;;1.98;0.73;;;;;;;;;;2091850;28;20156;-60
2023/06/07 00:08:01;;;;;;;0.57;0.50;;;;;;;;;;2089751;28;20021;-58
2023/06/07 00:09:20;;;;;;;1.42;0.77;;;;;;;;;;2095189;28;20028;-59
2023/06/07 00:10:39;;;;;;;0.90;0.60;;;;;;;;;;2091685;28;20021;-63
2023/06/07 00:11:58;;;;;;;3.50;0.70;;;;;;;;;;2092803;28;20473;-60
2023/06/07 00:13:17;;;;;;;1.17;0.60;;;;;;;;;;2093199;28;20488;-64
2023/06/07 00:14:36;;;;;;;2.78;0.90;;;;;;;;;;2088823;28;20739;-60
2023/06/07 00:15:55;;;;;;;1.27;0.60;;;;;;;;;;2090589;28;20057;-59
2023/06/07 00:17:15;;;;;;;1.95;0.73;;;;;;;;;;2093720;28;20502;-59
2023/06/07 00:18:34;;;;;;;2.72;0.70;;;;;;;;;;2093585;28;20553;-59
2023/06/07 00:19:54;;;;;;;1.15;0.77;;;;;;;;;;2091815;28;20033;-60
2023/06/07 00:21:13;;;;;;;2.58;0.60;;;;;;;;;;2085140;28;20037;-59
2023/06/07 00:22:34;;;;;;;0.93;0.70;;;;;;;;;;2090806;28;20025;-60
2023/06/07 00:23:53;;;;;;;1.42;0.57;;;;;;;;;;2090959;28;20025;-59
2023/06/07 00:25:12;;;;;;;6.60;0.85;;;;;;;;;;2094645;28;20485;-58
2023/06/07 00:26:31;;;;;;;1.85;0.75;;;;;;;;;;2092573;28;20037;-60
2023/06/07 00:27:51;;;;;;;5.82;0.80;;;;;;;;;;2092438;28;20037;-58
2023/06/07 00:29:11;;;;;;;3.03;0.73;;;;;;;;;;2083173;28;20880;-60
2023/06/07 00:30:30;;;;;;;2.20;0.50;;;;;;;;;;2089134;28;20021;-60
2023/06/07 00:31:49;;;;;;;1.30;0.70;;;;;;;;;;2092317;28;20025;-58
2023/06/07 00:33:08;;;;;;;0.90;0.68;;;;;;;;;;2091743;28;20029;-59
2023/06/07 00:34:27;;;;;;;1.63;0.70;;;;;;;;;;2092236;28;20021;-60
2023/06/07 00:35:46;;;;;;;0.60;0.45;;;;;;;;;;2093608;28;20489;-59
2023/06/07 00:37:05;;;;;;;3.33;0.70;;;;;;;;;;2093139;28;20024;-59
2023/06/07 00:38:24;;;;;;;2.67;0.70;;;;;;;;;;2090913;28;20024;-59
2023/06/07 00:39:43;;;;;;;0.70;0.70;;;;;;;;;;2092146;28;20029;-59
2023/06/07 00:41:02;;;;;;;0.98;0.50;;;;;;;;;;2081244;28;20029;-60
2023/06/07 00:42:20;;;;;;;2.88;0.65;;;;;;;;;;2077202;28;20061;-59
2023/06/07 00:43:39;;;;;;;1.08;0.63;;;;;;;;;;2087678;28;20029;-60
2023/06/07 00:44:58;;;;;;;0.43;0.40;;;;;;;;;;2091431;28;20058;-60
2023/06/07 00:46:21;;;;;;;1.85;0.68;;;;;;;;;;2094536;28;20021;-59
2023/06/07 00:47:41;;;;;;;1.05;0.70;;;;;;;;;;2091466;28;21111;-59
2023/06/07 00:49:00;;;;;;;0.98;0.60;;;;;;;;;;2092681;28;20341;-59
2023/06/07 00:50:19;;;;;;;3.50;0.60;;;;;;;;;;2087764;28;20037;-60
2023/06/07 00:51:38;;;;;;;0.70;0.57;;;;;;;;;;2092023;28;20037;-59
2023/06/07 00:52:58;;;;;;;0.65;0.65;;;;;;;;;;2094000;28;20029;-60
2023/06/07 00:54:17;;;;;;;2.13;0.70;;;;;;;;;;2092185;28;20025;-58
2023/06/07 00:55:37;;;;;;;0.90;0.63;;;;;;;;;;2082404;28;20029;-59
2023/06/07 00:56:56;;;;;;;1.67;0.65;;;;;;;;;;2089696;28;20557;-60
2023/06/07 00:58:15;;;;;;;0.80;0.50;;;;;;;;;;2094418;28;20486;-60
2023/06/07 00:59:35;;;;;;;0.68;0.68;;;;;;;;;;2092605;28;20437;-59
2023/06/07 01:00:54;;;;;;;4.05;0.80;;;;;;;;;;2090933;28;20040;-60
2023/06/07 01:02:14;;;;;;;3.03;0.70;;;;;;;;;;2095127;28;20103;-60
2023/06/07 01:03:36;;;;;;;1.70;0.68;;;;;;;;;;2090966;28;20037;-58
2023/06/07 01:04:56;;;;;;;2.45;0.68;;;;;;;;;;2093288;28;20134;-59
2023/06/07 01:06:16;;;;;;;0.45;0.45;;;;;;;;;;2094132;28;20021;-60
2023/06/07 01:07:34;;;;;;;3.15;1.15;;;;;;;;;;2090593;28;20492;-59
2023/06/07 01:08:54;;;;;;;1.30;0.63;;;;;;;;;;2092667;28;20127;-60
2023/06/07 01:10:14;;;;;;;0.50;0.50;;;;;;;;;;2089826;28;20037;-60
2023/06/07 01:11:34;;;;;;;0.65;0.50;;;;;;;;;;2093497;28;20111;-61
2023/06/07 01:12:54;;;;;;;0.80;0.52;;;;;;;;;;2093751;28;20064;-64
2023/06/07 01:14:14;;;;;;;1.73;0.82;;;;;;;;;;2092277;28;20016;-60
2023/06/07 01:15:33;;;;;;;0.63;0.55;;;;;;;;;;2092888;28;20139;-60
2023/06/07 01:16:53;;;;;;;0.98;0.65;;;;;;;;;;2097240;28;20484;-60
2023/06/07 01:18:12;;;;;;;0.57;0.55;;;;;;;;;;2081754;28;20076;-59
2023/06/07 01:19:34;;;;;;;0.82;0.40;;;;;;;;;;2091814;28;20033;-60
2023/06/07 01:20:54;;;;;;;0.50;0.45;;;;;;;;;;2093367;28;20044;-59
2023/06/07 01:22:14;;;;;;;0.77;0.57;;;;;;;;;;2096701;28;20028;-60
2023/06/07 01:23:33;;;;;;;0.68;0.57;;;;;;;;;;2083769;28;20037;-59
2023/06/07 01:24:53;;;;;;;0.70;0.68;;;;;;;;;;2093046;28;20393;-59
2023/06/07 01:26:12;;;;;;;1.48;0.70;;;;;;;;;;2094172;28;20645;-60
2023/06/07 01:27:32;;;;;;;1.08;0.60;;;;;;;;;;2093930;28;20478;-58
2023/06/07 01:28:52;;;;;;;0.80;0.65;;;;;;;;;;2093782;28;20029;-60
2023/06/07 01:30:12;;;;;;;1.05;0.50;;;;;;;;;;2082186;28;20557;-59
2023/06/07 01:31:35;;;;;;;0.60;0.40;;;;;;;;;;2090239;28;20032;-59
2023/06/07 01:32:55;;;;;;;2.58;0.50;;;;;;;;;;2095311;28;20056;-63
2023/06/07 01:34:14;;;;;;;0.50;0.50;;;;;;;;;;2093510;28;20064;-59
2023/06/07 01:35:34;;;;;;;0.73;0.63;;;;;;;;;;2094289;28;21244;-58
2023/06/07 01:36:54;;;;;;;1.73;0.80;;;;;;;;;;2096212;28;20036;-58
2023/06/07 01:38:15;;;;;;;0.60;0.47;;;;;;;;;;2090209;28;20247;-60
2023/06/07 01:39:35;;;;;;;2.67;0.60;;;;;;;;;;2091507;28;21310;-59
2023/06/07 01:40:55;;;;;;;1.08;0.70;;;;;;;;;;2090987;28;20112;-59
2023/06/07 01:42:15;;;;;;;1.65;0.80;;;;;;;;;;2092765;28;20028;-60
2023/06/07 01:43:34;;;;;;;1.40;0.80;;;;;;;;;;2095363;28;20028;-60
2023/06/07 01:44:54;;;;;;;1.35;0.40;;;;;;;;;;2097137;28;20029;-59
2023/06/07 01:46:14;;;;;;;2.15;0.80;;;;;;;;;;2084986;28;20410;-59
2023/06/07 01:47:33;;;;;;;0.60;0.60;;;;;;;;;;2090314;28;20025;-60
2023/06/07 01:48:52;;;;;;;2.10;0.65;;;;;;;;;;2093093;28;20040;-59
2023/06/07 01:50:11;;;;;;;2.13;0.93;;;;;;;;;;2093449;28;20040;-60
2023/06/07 01:51:30;;;;;;;0.93;0.50;;;;;;;;;;2094470;28;20029;-59
2023/06/07 01:52:49;;;;;;;0.70;0.70;;;;;;;;;;2091117;28;20033;-60
2023/06/07 01:54:08;;;;;;;1.98;1.15;;;;;;;;;;2094738;28;20119;-59
2023/06/07 01:55:27;;;;;;;0.52;0.52;;;;;;;;;;2094893;28;20032;-60
2023/06/07 01:57:03;;;;;;;2.08;0.60;;;;;;;;;;2095045;28;20115;-60
2023/06/07 01:58:29;;;;;;;1.13;0.70;;;;;;;;;;2091049;28;20493;-60
2023/06/07 01:59:59;;;;;;;1.25;0.50;;;;;;;;;;2093939;28;20033;-59
2023/06/07 02:01:41;;;;;;;1.20;0.45;;;;;;;;;;2094168;28;20028;-59
2023/06/07 02:03:00;;;;;;;2.97;0.70;;;;;;;;;;2090427;28;20016;-59
2023/06/07 02:04:20;;;;;;;0.85;0.70;;;;;;;;;;2094082;28;20476;-59
2023/06/07 02:05:43;;;;;;;2.92;0.80;;;;;;;;;;2092899;28;20036;-60
2023/06/07 02:07:06;;;;;;;1.27;0.60;;;;;;;;;;2095651;28;20032;-59
2023/06/07 02:08:30;;;;;;;0.93;0.80;;;;;;;;;;2095581;28;20029;-60
2023/06/07 02:09:50;;;;;;;3.60;0.75;;;;;;;;;;2094782;28;20096;-59
2023/06/07 02:11:10;;;;;;;0.68;0.63;;;;;;;;;;2093748;28;20028;-58
2023/06/07 02:12:30;;;;;;;0.98;0.57;;;;;;;;;;2093782;28;20037;-60
2023/06/07 02:13:51;;;;;;;2.63;0.60;;;;;;;;;;2092572;28;20406;-60
2023/06/07 02:15:11;;;;;;;1.63;0.63;;;;;;;;;;2081232;28;20025;-60
2023/06/07 02:16:35;;;;;;;0.60;0.60;;;;;;;;;;2088829;28;20032;-59
2023/06/07 02:17:57;;;;;;;1.30;0.63;;;;;;;;;;2089903;28;20048;-59
2023/06/07 02:19:16;;;;;;;0.60;0.60;;;;;;;;;;2084433;28;20037;-59
2023/06/07 02:20:35;;;;;;;0.50;0.50;;;;;;;;;;2089118;28;20037;-59
2023/06/07 02:21:54;;;;;;;1.95;0.80;;;;;;;;;;2091661;28;20493;-60
2023/06/07 02:23:14;;;;;;;1.70;0.95;;;;;;;;;;2091603;28;20025;-59
2023/06/07 02:24:33;;;;;;;0.60;0.60;;;;;;;;;;2095238;28;20024;-60
2023/06/07 02:25:52;;;;;;;0.68;0.60;;;;;;;;;;2096474;28;20024;-59
2023/06/07 02:27:12;;;;;;;1.92;0.70;;;;;;;;;;2094867;28;20021;-59
2023/06/07 02:28:32;;;;;;;0.68;0.63;;;;;;;;;;2093758;28;20028;-60
2023/06/07 02:29:50;;;;;;;0.82;0.82;;;;;;;;;;2092845;28;20074;-62
2023/06/07 02:31:09;;;;;;;0.65;0.65;;;;;;;;;;2095828;28;20066;-60
2023/06/07 02:32:29;;;;;;;1.10;0.68;;;;;;;;;;2095036;28;20020;-64
2023/06/07 02:33:48;;;;;;;1.83;0.80;;;;;;;;;;2093399;28;20024;-60
2023/06/07 02:35:08;;;;;;;0.80;0.80;;;;;;;;;;2092506;28;20052;-60
2023/06/07 02:36:32;;;;;;;0.85;0.63;;;;;;;;;;2092682;28;20028;-60
2023/06/07 02:37:51;;;;;;;1.75;1.00;;;;;;;;;;2092562;28;20036;-58
2023/06/07 02:39:11;;;;;;;2.22;0.70;;;;;;;;;;2090111;28;20048;-60
2023/06/07 02:40:30;;;;;;;2.55;0.65;;;;;;;;;;2093781;28;20107;-60
2023/06/07 02:41:49;;;;;;;1.92;0.90;;;;;;;;;;2083809;28;20025;-59
2023/06/07 02:43:08;;;;;;;1.67;0.60;;;;;;;;;;2089771;28;20021;-59
2023/06/07 02:44:28;;;;;;;1.42;0.80;;;;;;;;;;2094586;28;20016;-59
2023/06/07 02:45:46;;;;;;;0.95;0.70;;;;;;;;;;2095336;28;20024;-60
2023/06/07 02:47:05;;;;;;;2.63;0.82;;;;;;;;;;2089781;28;20025;-59
2023/06/07 02:48:24;;;;;;;2.58;0.80;;;;;;;;;;2087314;28;20028;-60
2023/06/07 02:49:43;;;;;;;2.53;0.70;;;;;;;;;;2086714;28;20461;-60
2023/06/07 02:51:02;;;;;;;1.10;0.68;;;;;;;;;;2093682;28;20482;-60
2023/06/07 02:52:22;;;;;;;1.60;0.90;;;;;;;;;;2094219;28;20486;-60
2023/06/07 02:53:42;;;;;;;1.83;0.70;;;;;;;;;;2091143;28;20190;-60
2023/06/07 02:55:01;;;;;;;1.00;1.00;;;;;;;;;;2095042;28;20028;-60
2023/06/07 02:56:20;;;;;;;0.73;0.70;;;;;;;;;;2089409;28;20541;-60
2023/06/07 02:57:40;;;;;;;2.10;0.60;;;;;;;;;;2089203;28;20805;-59
2023/06/07 02:58:59;;;;;;;2.05;1.00;;;;;;;;;;2092946;28;20417;-60
2023/06/07 03:00:18;;;;;;;1.15;0.90;;;;;;;;;;2090650;28;20477;-59
2023/06/07 03:01:37;;;;;;;2.50;1.10;;;;;;;;;;2093130;28;20572;-58
2023/06/07 03:02:56;;;;;;;3.00;0.90;;;;;;;;;;2094692;28;20033;-59
2023/06/07 03:04:18;;;;;;;1.70;0.85;;;;;;;;;;2091947;28;20104;-59
2023/06/07 03:05:40;;;;;;;1.30;0.75;;;;;;;;;;2095290;28;20433;-60
2023/06/07 03:07:00;;;;;;;1.27;0.75;;;;;;;;;;2092681;28;20028;-60
2023/06/07 03:08:19;;;;;;;2.22;0.70;;;;;;;;;;2094044;28;20021;-59
2023/06/07 03:09:39;;;;;;;5.85;1.05;;;;;;;;;;2094445;28;20029;-58
2023/06/07 03:10:58;;;;;;;2.33;0.82;;;;;;;;;;2092974;28;20481;-59
2023/06/07 03:12:17;;;;;;;3.75;1.02;;;;;;;;;;2092540;28;20386;-59
2023/06/07 03:13:36;;;;;;;4.55;0.98;;;;;;;;;;2092678;28;20041;-60
2023/06/07 03:14:55;;;;;;;2.40;0.68;;;;;;;;;;2093451;28;20127;-59
2023/06/07 03:16:14;;;;;;;2.80;1.00;;;;;;;;;;2093380;28;20052;-60
2023/06/07 03:17:33;;;;;;;6.20;1.33;;;;;;;;;;2092846;28;20029;-61
2023/06/07 03:18:52;;;;;;;1.60;0.82;;;;;;;;;;2095636;28;20044;-61
2023/06/07 03:20:11;;;;;;;4.50;1.05;;;;;;;;;;2083342;28;20024;-60
2023/06/07 03:21:30;;;;;;;3.58;0.70;;;;;;;;;;2090814;28;20017;-60
2023/06/07 03:22:49;;;;;;;3.42;0.82;;;;;;;;;;2093851;28;20017;-58
2023/06/07 03:24:08;;;;;;;8.43;1.60;;;;;;;;;;2095510;28;20028;-60
2023/06/07 03:25:27;;;;;;;6.15;1.38;;;;;;;;;;2095180;28;20021;-59
2023/06/07 03:26:46;;;;;;;1.55;0.80;;;;;;;;;;2095426;28;20103;-59
2023/06/07 03:28:05;;;;;;;4.18;0.85;;;;;;;;;;2091743;28;20032;-59
2023/06/07 03:29:24;;;;;;;1.52;0.70;;;;;;;;;;2094005;28;20060;-58
2023/06/07 03:30:43;;;;;;;2.90;1.27;;;;;;;;;;2094271;28;20025;-58
2023/06/07 03:32:02;;;;;;;1.30;0.75;;;;;;;;;;2092815;28;20410;-59
2023/06/07 03:33:21;;;;;;;2.13;0.70;;;;;;;;;;2092220;28;20525;-60
2023/06/07 03:34:41;;;;;;;2.70;0.82;;;;;;;;;;2094878;28;20491;-59
2023/06/07 03:36:00;;;;;;;2.28;0.93;;;;;;;;;;2091929;28;20032;-59
2023/06/07 03:37:19;;;;;;;2.13;0.52;;;;;;;;;;2094307;28;20048;-58
2023/06/07 03:38:38;;;;;;;1.23;0.73;;;;;;;;;;2083667;28;20033;-59
2023/06/07 03:39:57;;;;;;;0.57;0.50;;;;;;;;;;2089446;28;20028;-60
2023/06/07 03:41:16;;;;;;;3.67;0.77;;;;;;;;;;2092767;28;20104;-60
2023/06/07 03:42:35;;;;;;;4.45;1.00;;;;;;;;;;2095043;28;20494;-60
2023/06/07 03:43:54;;;;;;;1.70;0.70;;;;;;;;;;2093464;28;20032;-59
2023/06/07 03:45:13;;;;;;;1.77;0.80;;;;;;;;;;2092091;28;20079;-60
2023/06/07 03:46:32;;;;;;;1.80;0.57;;;;;;;;;;2095160;28;20393;-60
2023/06/07 03:47:51;;;;;;;1.00;0.70;;;;;;;;;;2092759;28;20040;-58
2023/06/07 03:49:10;;;;;;;0.40;0.40;;;;;;;;;;2089478;28;20036;-59
2023/06/07 03:50:29;;;;;;;0.82;0.43;;;;;;;;;;2093554;28;20498;-60
2023/06/07 03:51:49;;;;;;;2.80;0.63;;;;;;;;;;2091710;28;20032;-60
2023/06/07 03:53:09;;;;;;;1.30;0.52;;;;;;;;;;2091575;28;20025;-59
2023/06/07 03:54:28;;;;;;;1.40;0.65;;;;;;;;;;2083651;28;21163;-60
2023/06/07 03:55:48;;;;;;;1.73;0.60;;;;;;;;;;2087670;28;20112;-60
2023/06/07 03:57:07;;;;;;;1.95;0.70;;;;;;;;;;2092753;28;20428;-59
2023/06/07 03:58:26;;;;;;;1.00;0.80;;;;;;;;;;2093293;28;20037;-59
2023/06/07 03:59:45;;;;;;;0.63;0.60;;;;;;;;;;2070971;28;20046;-60
2023/06/07 04:01:04;;;;;;;4.72;0.82;;;;;;;;;;2077238;28;20033;-60
2023/06/07 04:02:23;;;;;;;1.52;0.60;;;;;;;;;;2077603;28;20025;-59
2023/06/07 04:03:43;;;;;;;2.33;0.70;;;;;;;;;;2077729;28;20596;-58
2023/06/07 04:05:02;;;;;;;1.15;0.60;;;;;;;;;;2079052;28;20017;-59
2023/06/07 04:06:24;;;;;;;2.10;0.90;;;;;;;;;;2075198;28;20025;-59
2023/06/07 04:07:43;;;;;;;1.48;0.40;;;;;;;;;;2074965;28;20026;-59
2023/06/07 04:09:03;;;;;;;1.38;0.73;;;;;;;;;;2075087;28;20029;-60
2023/06/07 04:10:22;;;;;;;2.65;0.50;;;;;;;;;;2077484;28;20041;-60
2023/06/07 04:11:40;;;;;;;2.05;0.57;;;;;;;;;;2076774;28;20300;-59
2023/06/07 04:12:59;;;;;;;0.70;0.65;;;;;;;;;;2077335;28;20077;-59
2023/06/07 04:14:18;;;;;;;0.98;0.70;;;;;;;;;;2073452;28;20066;-60
2023/06/07 04:15:37;;;;;;;1.50;0.65;;;;;;;;;;2074600;28;20042;-59
2023/06/07 04:16:56;;;;;;;2.47;0.50;;;;;;;;;;2079434;28;20025;-60
2023/06/07 04:18:15;;;;;;;0.70;0.60;;;;;;;;;;2077481;28;20108;-58
2023/06/07 04:19:35;;;;;;;0.82;0.60;;;;;;;;;;2075285;28;20041;-60
2023/06/07 04:20:54;;;;;;;0.75;0.50;;;;;;;;;;2077086;28;20053;-59
2023/06/07 04:22:13;;;;;;;1.05;0.80;;;;;;;;;;2072974;28;20065;-60
2023/06/07 04:23:32;;;;;;;6.07;0.77;;;;;;;;;;2073426;28;20033;-59
2023/06/07 04:24:51;;;;;;;1.27;0.60;;;;;;;;;;2074301;28;20026;-59
2023/06/07 04:26:11;;;;;;;3.40;0.82;;;;;;;;;;2075602;28;20566;-59
2023/06/07 04:27:30;;;;;;;3.47;0.70;;;;;;;;;;2076576;28;20030;-58
2023/06/07 04:28:49;;;;;;;0.70;0.55;;;;;;;;;;2075028;28;20018;-59
2023/06/07 04:30:10;;;;;;;6.00;0.70;;;;;;;;;;2075192;28;20026;-59
2023/06/07 04:31:29;;;;;;;1.95;0.90;;;;;;;;;;2076007;28;20022;-60
2023/06/07 04:32:49;;;;;;;1.48;0.50;;;;;;;;;;2075595;28;20414;-59
2023/06/07 04:34:09;;;;;;;1.65;0.60;;;;;;;;;;2073527;28;20026;-60
2023/06/07 04:35:31;;;;;;;3.80;0.60;;;;;;;;;;2076128;28;20483;-59
2023/06/07 04:36:50;;;;;;;0.70;0.57;;;;;;;;;;2073969;28;20467;-59
2023/06/07 04:38:11;;;;;;;1.38;0.70;;;;;;;;;;2073370;28;20037;-58
2023/06/07 04:39:31;;;;;;;0.60;0.50;;;;;;;;;;2071926;28;20064;-59
2023/06/07 04:40:50;;;;;;;0.82;0.60;;;;;;;;;;2076647;28;20022;-60
2023/06/07 04:42:09;;;;;;;3.17;0.80;;;;;;;;;;2074570;28;20033;-59
2023/06/07 04:43:28;;;;;;;1.55;0.70;;;;;;;;;;2076120;28;20070;-59
2023/06/07 04:44:47;;;;;;;4.90;0.80;;;;;;;;;;2078722;28;20398;-61
2023/06/07 04:46:06;;;;;;;2.55;0.50;;;;;;;;;;2076500;28;20034;-59
2023/06/07 04:47:27;;;;;;;0.77;0.50;;;;;;;;;;2076243;28;20014;-60
2023/06/07 04:48:46;;;;;;;1.50;0.90;;;;;;;;;;2081080;28;20029;-59
2023/06/07 04:50:08;;;;;;;2.85;0.40;;;;;;;;;;2075147;28;20073;-60
2023/06/07 04:51:29;;;;;;;1.85;0.68;;;;;;;;;;2073371;28;20026;-60
2023/06/07 04:52:49;;;;;;;1.45;0.70;;;;;;;;;;2077001;28;20025;-60
2023/06/07 04:54:16;;;;;;;1.27;0.80;;;;;;;;;;2072235;28;20492;-59
2023/06/07 04:55:35;;;;;;;2.40;0.90;;;;;;;;;;2078763;28;20457;-59
2023/06/07 04:56:56;;;;;;;9.38;0.60;;;;;;;;;;2077953;28;20494;-60
2023/06/07 04:58:16;;;;;;;2.03;0.90;;;;;;;;;;2072278;28;20033;-60
2023/06/07 04:59:42;;;;;;;0.88;0.65;;;;;;;;;;2074731;28;20057;-60
2023/06/07 05:01:02;;;;;;;2.70;1.90;;;;;;;;;;2076187;28;20026;-60
2023/06/07 05:02:21;;;;;;;2.65;1.35;;;;;;;;;;2078561;28;20029;-60
2023/06/07 05:03:41;;;;;;;1.35;1.23;;;;;;;;;;2073744;28;20758;-59
2023/06/07 05:05:00;;;;;;;2.60;2.40;;;;;;;;;;2080080;28;20037;-60
2023/06/07 05:06:19;;;;;;;3.28;1.95;;;;;;;;;;2075914;28;20498;-60
2023/06/07 05:07:41;;;;;;;4.75;2.05;;;;;;;;;;2076647;28;20045;-60
2023/06/07 05:08:59;;;;;;;1.58;1.48;;;;;;;;;;2078400;28;20469;-61
2023/06/07 05:10:18;;;;;;;1.60;1.23;;;;;;;;;;2075746;28;20041;-59
2023/06/07 05:11:37;;;;;;;1.67;1.58;;;;;;;;;;2078964;28;20025;-59
2023/06/07 05:12:56;;;;;;;1.40;1.30;;;;;;;;;;2079498;28;20064;-60
2023/06/07 05:14:15;;;;;;;5.15;1.60;;;;;;;;;;2076750;28;20034;-60
2023/06/07 05:15:34;;;;;;;1.55;1.45;;;;;;;;;;2075465;28;20113;-59
2023/06/07 05:16:53;;;;;;;0.82;0.82;;;;;;;;;;2077553;28;20638;-61
2023/06/07 05:18:18;;;;;;;2.15;0.90;;;;;;;;;;2075749;28;20033;-59
2023/06/07 05:19:37;;;;;;;2.35;0.80;;;;;;;;;;2077178;28;20033;-62
2023/06/07 05:20:55;;;;;;;1.45;0.85;;;;;;;;;;2079003;28;20491;-60
2023/06/07 05:22:14;;;;;;;2.63;0.60;;;;;;;;;;2081126;28;20037;-59
2023/06/07 05:23:33;;;;;;;0.77;0.70;;;;;;;;;;2078422;28;20112;-60
2023/06/07 05:24:52;;;;;;;3.13;1.10;;;;;;;;;;2075226;28;20050;-60
2023/06/07 05:26:11;;;;;;;2.25;0.90;;;;;;;;;;2079381;28;20065;-61
2023/06/07 05:27:30;;;;;;;3.38;0.90;;;;;;;;;;2071898;28;20718;-60
2023/06/07 05:28:49;;;;;;;3.67;0.73;;;;;;;;;;2077495;28;20033;-60
2023/06/07 05:30:09;;;;;;;2.10;1.08;;;;;;;;;;2076623;28;20956;-60
2023/06/07 05:31:29;;;;;;;1.35;0.63;;;;;;;;;;2077655;28;20378;-60
2023/06/07 05:32:48;;;;;;;7.45;0.85;;;;;;;;;;2071133;28;20034;-60
2023/06/07 05:34:07;;;;;;;4.53;1.00;;;;;;;;;;2072975;28;20120;-59
2023/06/07 05:35:26;;;;;;;3.75;1.10;;;;;;;;;;2074505;28;20030;-59
2023/06/07 05:36:45;;;;;;;4.82;0.80;;;;;;;;;;2078092;28;20381;-60
2023/06/07 05:38:04;;;;;;;5.15;1.05;;;;;;;;;;2075227;28;20123;-61
2023/06/07 05:39:23;;;;;;;2.72;0.73;;;;;;;;;;2079214;28;20037;-59
2023/06/07 05:40:42;;;;;;;2.58;0.60;;;;;;;;;;2076715;28;20065;-60
2023/06/07 05:42:01;;;;;;;2.30;0.90;;;;;;;;;;2077078;28;20033;-59
2023/06/07 05:43:20;;;;;;;3.20;0.80;;;;;;;;;;2075946;28;20025;-58
2023/06/07 05:44:40;;;;;;;2.35;0.65;;;;;;;;;;2074721;28;20462;-60
2023/06/07 05:45:59;;;;;;;1.80;0.65;;;;;;;;;;2074942;28;20029;-60
2023/06/07 05:47:20;;;;;;;1.55;1.00;;;;;;;;;;2076975;28;20021;-59
2023/06/07 05:48:39;;;;;;;2.92;0.70;;;;;;;;;;2073781;28;20028;-60
2023/06/07 05:49:58;;;;;;;3.25;0.73;;;;;;;;;;2079729;28;20132;-59
2023/06/07 05:51:17;;;;;;;2.03;0.90;;;;;;;;;;2079002;28;20057;-60
2023/06/07 05:52:37;;;;;;;2.13;0.82;;;;;;;;;;2076772;28;20030;-59
2023/06/07 05:53:56;;;;;;;2.15;0.63;;;;;;;;;;2074783;28;20026;-59
2023/06/07 05:55:16;;;;;;;1.90;0.75;;;;;;;;;;2076886;28;20033;-59
2023/06/07 05:56:35;;;;;;;4.00;0.68;;;;;;;;;;2076271;28;20025;-59
2023/06/07 05:57:54;;;;;;;3.50;0.90;;;;;;;;;;2076720;28;20109;-59
2023/06/07 05:59:13;;;;;;;1.85;0.50;;;;;;;;;;2089014;28;20040;-58
2023/06/07 06:00:33;;;;;;;3.13;0.80;;;;;;;;;;2094989;28;20473;-59
2023/06/07 06:01:52;;;;;;;2.60;0.70;;;;;;;;;;2091198;28;20020;-59
2023/06/07 06:03:11;;;;;;;0.90;0.60;;;;;;;;;;2081362;28;20080;-59
2023/06/07 06:04:30;;;;;;;0.75;0.75;;;;;;;;;;2092077;28;20029;-59
2023/06/07 06:05:50;;;;;;;3.75;1.10;;;;;;;;;;2093907;28;20021;-61
2023/06/07 06:07:10;;;;;;;0.85;0.63;;;;;;;;;;2081669;28;20056;-59
2023/06/07 06:08:29;;;;;;;0.95;0.60;;;;;;;;;;2088966;28;20056;-57
2023/06/07 06:09:49;;;;;;;0.75;0.60;;;;;;;;;;2089310;28;20502;-59
2023/06/07 06:11:10;;;;;;;2.42;0.60;;;;;;;;;;2089170;28;20032;-59
2023/06/07 06:12:29;;;;;;;0.93;0.60;;;;;;;;;;2082558;28;20498;-59
2023/06/07 06:13:48;;;;;;;1.45;0.60;;;;;;;;;;2079242;28;20029;-58
2023/06/07 06:15:07;;;;;;;2.40;0.50;;;;;;;;;;2083006;28;20033;-60
2023/06/07 06:16:26;;;;;;;1.73;0.60;;;;;;;;;;2083204;28;20036;-60
2023/06/07 06:17:45;;;;;;;1.75;0.50;;;;;;;;;;2090644;28;20032;-59
2023/06/07 06:19:04;;;;;;;0.50;0.50;;;;;;;;;;2082639;28;20476;-56
2023/06/07 06:20:23;;;;;;;1.70;0.93;;;;;;;;;;2088221;28;20028;-56
2023/06/07 06:21:43;;;;;;;1.67;0.68;;;;;;;;;;2093180;28;20050;-58
2023/06/07 06:23:03;;;;;;;0.50;0.50;;;;;;;;;;2093490;28;20028;-58
2023/06/07 06:24:22;;;;;;;1.05;0.80;;;;;;;;;;2097931;28;20028;-58
2023/06/07 06:25:41;;;;;;;1.17;0.65;;;;;;;;;;2094115;28;20056;-58
2023/06/07 06:27:00;;;;;;;0.50;0.50;;;;;;;;;;2092113;28;20028;-58
2023/06/07 06:28:21;;;;;;;0.75;0.50;;;;;;;;;;2096380;28;20036;-60
2023/06/07 06:29:39;;;;;;;1.33;0.77;;;;;;;;;;2095370;28;20099;-58
2023/06/07 06:31:01;;;;;;;0.55;0.55;;;;;;;;;;2096233;28;20497;-58
2023/06/07 06:32:20;;;;;;;0.88;0.40;;;;;;;;;;2093604;28;20025;-58
2023/06/07 06:33:39;;;;;;;2.28;0.70;;;;;;;;;;2089238;28;20033;-56
2023/06/07 06:34:58;;;;;;;0.73;0.73;;;;;;;;;;2089799;28;20029;-58
2023/06/07 06:36:17;;;;;;;3.80;0.75;;;;;;;;;;2090524;28;20024;-58
2023/06/07 06:37:36;;;;;;;1.95;0.60;;;;;;;;;;2090180;28;20032;-58
2023/06/07 06:38:55;;;;;;;0.80;0.60;;;;;;;;;;2091807;28;20480;-59
2023/06/07 06:40:15;;;;;;;2.50;0.57;;;;;;;;;;2093477;28;20663;-57
2023/06/07 06:41:34;;;;;;;3.33;0.52;;;;;;;;;;2093379;28;20052;-58
2023/06/07 06:42:53;;;;;;;1.95;0.50;;;;;;;;;;2091123;28;20082;-58
2023/06/07 06:44:12;;;;;;;1.75;0.70;;;;;;;;;;2092528;28;20028;-58
2023/06/07 06:45:31;;;;;;;1.58;0.68;;;;;;;;;;2085190;28;20104;-58
2023/06/07 06:46:50;;;;;;;2.03;0.68;;;;;;;;;;2092544;28;20016;-59
2023/06/07 06:48:09;;;;;;;2.13;0.73;;;;;;;;;;2093211;28;20025;-60
2023/06/07 06:49:28;;;;;;;1.23;0.90;;;;;;;;;;2095927;28;20032;-58
2023/06/07 06:50:49;;;;;;;1.95;0.52;;;;;;;;;;2092178;28;20086;-58
2023/06/07 06:52:08;;;;;;;2.28;0.70;;;;;;;;;;2093183;28;20033;-59
2023/06/07 06:53:27;;;;;;;1.92;0.60;;;;;;;;;;2094384;28;20029;-59
2023/06/07 06:54:46;;;;;;;1.63;0.52;;;;;;;;;;2094628;28;20103;-59
2023/06/07 06:56:06;;;;;;;1.58;0.90;;;;;;;;;;2090346;28;20398;-57
2023/06/07 06:57:25;;;;;;;3.33;0.90;;;;;;;;;;2094658;28;20052;-58
2023/06/07 06:58:46;;;;;;;4.78;0.75;;;;;;;;;;2092576;28;20064;-59
2023/06/07 07:00:06;;;;;;;5.25;0.70;;;;;;;;;;2093453;28;20037;-59
2023/06/07 07:01:41;;;;;;;1.67;0.95;;;;;;;;;;2079289;28;20029;-59
2023/06/07 07:03:00;;;;;;;1.17;0.65;;;;;;;;;;2089111;28;20403;-59
2023/06/07 07:04:19;;;;;;;2.25;0.63;;;;;;;;;;2089451;28;20025;-59
2023/06/07 07:05:38;;;;;;;0.60;0.50;;;;;;;;;;2094589;28;20032;-58
2023/06/07 07:06:56;;;;;;;1.67;0.52;;;;;;;;;;2092246;28;20044;-58
2023/06/07 07:08:17;;;;;;;0.70;0.50;;;;;;;;;;2091132;28;20033;-57
2023/06/07 07:09:36;;;;;;;0.40;0.40;;;;;;;;;;2093970;28;20474;-59
2023/06/07 07:10:55;;;;;;;2.05;0.50;;;;;;;;;;2094241;28;20099;-59
2023/06/07 07:12:14;;;;;;;0.70;0.70;;;;;;;;;;2093607;28;20037;-59
2023/06/07 07:13:33;;;;;;;1.92;0.60;;;;;;;;;;2091588;28;20024;-59
2023/06/07 07:14:52;;;;;;;1.35;0.70;;;;;;;;;;2093895;28;20099;-59
2023/06/07 07:16:11;;;;;;;3.60;0.70;;;;;;;;;;2094567;28;20100;-58
2023/06/07 07:17:30;;;;;;;1.70;0.65;;;;;;;;;;2091843;28;20057;-58
2023/06/07 07:18:50;;;;;;;1.88;0.80;;;;;;;;;;2082552;28;20525;-59
2023/06/07 07:20:10;;;;;;;0.95;0.73;;;;;;;;;;2088400;28;20032;-57
2023/06/07 07:21:30;;;;;;;1.92;0.60;;;;;;;;;;2094519;28;20478;-58
2023/06/07 07:22:48;;;;;;;0.90;0.75;;;;;;;;;;2094607;28;20032;-57
2023/06/07 07:24:07;;;;;;;1.88;0.70;;;;;;;;;;2094731;28;20759;-59
2023/06/07 07:25:27;;;;;;;2.70;1.60;;;;;;;;;;2096008;28;20111;-59
2023/06/07 07:26:46;;;;;;;4.00;2.05;;;;;;;;;;2092992;28;20020;-59
2023/06/07 07:28:05;;;;;;;1.23;1.00;;;;;;;;;;2093630;28;20069;-58
2023/06/07 07:29:24;;;;;;;2.40;1.10;;;;;;;;;;2093970;28;20521;-59
2023/06/07 07:30:43;;;;;;;1.17;0.60;;;;;;;;;;2093247;28;20032;-59
2023/06/07 07:32:02;;;;;;;0.73;0.60;;;;;;;;;;2084380;28;20037;-58
2023/06/07 07:33:20;;;;;;;2.40;0.68;;;;;;;;;;2090205;28;20025;-59
2023/06/07 07:34:40;;;;;;;1.67;0.77;;;;;;;;;;2094701;28;20064;-59
2023/06/07 07:36:00;;;;;;;2.00;0.60;;;;;;;;;;2095578;28;20032;-58
2023/06/07 07:37:19;;;;;;;1.38;0.80;;;;;;;;;;2093214;28;20107;-59
2023/06/07 07:38:40;;;;;;;2.22;0.50;;;;;;;;;;2095783;28;20494;-59
2023/06/07 07:39:59;;;;;;;4.38;1.27;;;;;;;;;;2090448;28;20392;-60
2023/06/07 07:41:18;;;;;;;5.68;1.33;;;;;;;;;;2090330;28;20599;-58
2023/06/07 07:42:37;;;;;;;0.63;0.38;;;;;;;;;;2096558;28;20473;-60
2023/06/07 07:43:56;;;;;;;4.63;1.30;;;;;;;;;;2092908;28;20556;-59
2023/06/07 07:45:15;;;;;;;4.60;1.55;;;;;;;;;;2094758;28;20486;-59
2023/06/07 07:46:35;;;;;;;4.35;0.95;;;;;;;;;;2093922;28;20052;-59
2023/06/07 07:47:54;;;;;;;2.05;0.50;;;;;;;;;;2091778;28;20020;-62
2023/06/07 07:49:13;;;;;;;0.77;0.65;;;;;;;;;;2094562;28;20489;-59
2023/06/07 07:50:37;;;;;;;1.65;0.60;;;;;;;;;;2082317;28;20025;-60
2023/06/07 07:51:56;;;;;;;1.33;0.75;;;;;;;;;;2090451;28;20037;-59
2023/06/07 07:53:15;;;;;;;0.50;0.50;;;;;;;;;;2094078;28;20036;-59
2023/06/07 07:54:35;;;;;;;1.40;0.80;;;;;;;;;;2083265;28;20460;-59
2023/06/07 07:55:53;;;;;;;2.08;0.70;;;;;;;;;;2090928;28;20044;-58
2023/06/07 07:57:12;;;;;;;0.80;0.52;;;;;;;;;;2091154;28;20112;-57